This is the latest recevied weather packets stored in our database for station/object I1SXT-13. If no packets are shown the sender has not sent any weather packets the latest 10 day(s).
| Time | Temp. | Humidity | Pressure | Rain* | Wind** | Luminosity | Snow |
|---|---|---|---|---|---|---|---|
| 1777994963 | 18.33° C | 78% | 1013.7 hPa | 0 mm | - | - | - |
| 1777994666 | 18.33° C | 78% | 1013.1 hPa | 0 mm | - | - | - |
| 1777994368 | 18.89° C | 79% | 1014.5 hPa | 0 mm | - | - | - |
| 1777994064 | 18.89° C | 78% | 1013.3 hPa | 0 mm | - | - | - |
| 1777993767 | 18.89° C | 78% | 1013.5 hPa | 0 mm | - | - | - |
| 1777993470 | 18.89° C | 78% | 1013.3 hPa | 0 mm | - | - | - |
| 1777993166 | 18.33° C | 78% | 1013.6 hPa | 0 mm | - | - | - |
| 1777992869 | 18.89° C | 78% | 1013.1 hPa | 0 mm | - | - | - |
| 1777992564 | 18.89° C | 76% | 1013.9 hPa | 0 mm | - | - | - |
| 1777992267 | 20° C | 74% | 1013.2 hPa | 0 mm | - | - | - |
| 1777991970 | 20° C | 75% | 1013.5 hPa | 0 mm | - | - | - |
| 1777991666 | 19.44° C | 76% | 1014.3 hPa | 0 mm | - | - | - |
| 1777991369 | 20.56° C | 70% | 1013.4 hPa | 0 mm | - | - | - |
| 1777991065 | 21.11° C | 71% | 1013.5 hPa | 0 mm | - | - | - |
| 1777990768 | 20° C | 73% | 1013.1 hPa | 0 mm | - | - | - |
| 1777990464 | 19.44° C | 74% | 1013.5 hPa | 0 mm | - | - | - |
| 1777989869 | 20° C | 72% | 1013.5 hPa | 0 mm | - | - | - |
| 1777989565 | 20.56° C | 71% | 1013.6 hPa | 0 mm | - | - | - |
| 1777989268 | 21.11° C | 71% | 1013.9 hPa | 0 mm | - | - | - |
| 1777988964 | 20.56° C | 74% | 1013.1 hPa | 0 mm | - | - | - |
| 1777988667 | 20° C | 73% | 1013.4 hPa | 0 mm | - | - | - |
| 1777988370 | 21.11° C | 71% | 1014.1 hPa | 0 mm | - | - | - |
| 1777988066 | 20.56° C | 72% | 1013.9 hPa | 0 mm | - | - | - |
| 1777987768 | 19.44° C | 78% | 1013.8 hPa | 0 mm | - | - | - |
| 1777987167 | 20° C | 75% | 1013.9 hPa | 0 mm | - | - | - |
* Rain since midnight (hover to see other rain measurements)
** Current wind speed in m/s (hover to see current wind gust speed)